createdAt,value
2023-04-10T00:00:16.950Z,0
2023-04-10T00:01:23.074Z,0
2023-04-10T00:02:29.270Z,0
2023-04-10T00:04:41.499Z,0
2023-04-10T00:05:47.655Z,0
2023-04-10T00:07:59.948Z,0
2023-04-10T00:09:06.079Z,0
2023-04-10T00:10:12.235Z,0
2023-04-10T00:11:18.363Z,0
2023-04-10T00:12:23.531Z,0
2023-04-10T00:13:29.663Z,0
2023-04-10T00:14:35.815Z,0
2023-04-10T00:16:48.093Z,0
2023-04-10T00:17:54.235Z,0
2023-04-10T00:19:00.390Z,0
2023-04-10T00:20:06.525Z,0
2023-04-10T00:21:12.670Z,0
2023-04-10T00:22:18.820Z,0
2023-04-10T00:23:24.966Z,0
2023-04-10T00:24:31.118Z,0
2023-04-10T00:25:37.242Z,0
2023-04-10T00:26:42.441Z,0
2023-04-10T00:27:48.544Z,0
2023-04-10T00:28:54.682Z,0
2023-04-10T00:30:00.855Z,0
2023-04-10T00:31:06.011Z,0
2023-04-10T00:36:35.739Z,0
2023-04-10T00:37:41.883Z,0
2023-04-10T00:38:48.033Z,0
2023-04-10T00:39:54.179Z,0
2023-04-10T00:41:00.311Z,0
2023-04-10T00:43:12.640Z,0
2023-04-10T00:44:18.735Z,0
2023-04-10T00:45:24.886Z,0
2023-04-10T00:46:30.064Z,0
2023-04-10T00:47:36.192Z,0
2023-04-10T00:49:48.481Z,0
2023-04-10T00:51:59.789Z,0
2023-04-10T00:53:06.091Z,0
2023-04-10T00:54:11.247Z,0
2023-04-10T00:55:17.385Z,0
2023-04-10T00:57:29.669Z,0
2023-04-10T00:58:35.813Z,0
2023-04-10T00:59:41.969Z,0
2023-04-10T01:00:48.111Z,0
2023-04-10T01:01:54.242Z,0
2023-04-10T01:03:00.403Z,0
2023-04-10T01:04:06.554Z,0
2023-04-10T01:06:18.817Z,0
2023-04-10T01:07:24.960Z,0
2023-04-10T01:08:30.119Z,0
2023-04-10T01:09:36.329Z,0
2023-04-10T01:11:48.553Z,0
2023-04-10T01:12:54.710Z,0
2023-04-10T01:14:00.853Z,0
2023-04-10T01:15:06.998Z,0
2023-04-10T01:16:13.224Z,0
2023-04-10T01:17:19.268Z,0
2023-04-10T01:18:25.408Z,0
2023-04-10T01:20:37.700Z,0
2023-04-10T01:23:56.139Z,0
2023-04-10T01:25:01.287Z,0
2023-04-10T01:26:07.544Z,0
2023-04-10T01:27:13.599Z,0
2023-04-10T01:28:19.722Z,0
2023-04-10T01:29:25.891Z,0
2023-04-10T01:30:32.010Z,0
2023-04-10T01:31:38.143Z,0
2023-04-10T01:33:50.556Z,0
2023-04-10T01:34:56.585Z,0
2023-04-10T01:37:08.868Z,0
2023-04-10T01:39:21.158Z,0
2023-04-10T01:40:26.316Z,0
2023-04-10T01:41:32.467Z,0
2023-04-10T01:42:38.617Z,0
2023-04-10T01:43:44.737Z,0
2023-04-10T01:44:50.903Z,0
2023-04-10T01:45:57.040Z,0
2023-04-10T01:47:03.200Z,0
2023-04-10T01:48:09.329Z,0
2023-04-10T01:49:15.469Z,0
2023-04-10T01:50:21.615Z,0
2023-04-10T01:51:27.758Z,0
2023-04-10T01:52:33.906Z,0
2023-04-10T01:53:40.040Z,0
2023-04-10T01:55:51.629Z,0
2023-04-10T01:56:57.493Z,0
2023-04-10T01:58:03.701Z,0
2023-04-10T02:00:15.940Z,0
2023-04-10T02:01:22.073Z,0
2023-04-10T02:02:28.216Z,0
2023-04-10T02:03:34.346Z,0
2023-04-10T02:04:40.491Z,0
2023-04-10T02:05:46.668Z,0
2023-04-10T02:06:52.784Z,0
2023-04-10T02:07:58.982Z,0
2023-04-10T02:09:04.089Z,0
2023-04-10T02:10:10.244Z,0
2023-04-10T02:12:22.510Z,0
2023-04-10T02:13:28.716Z,0
2023-04-10T02:14:34.792Z,0
2023-04-10T02:15:40.951Z,0
2023-04-10T02:16:47.086Z,0
2023-04-10T02:17:53.237Z,0
2023-04-10T02:18:59.378Z,0
2023-04-10T02:20:05.523Z,0
2023-04-10T02:21:11.669Z,0
2023-04-10T02:22:17.813Z,0
2023-04-10T02:23:22.991Z,0
2023-04-10T02:24:28.159Z,0
2023-04-10T02:25:34.282Z,0
2023-04-10T02:31:05.004Z,0
2023-04-10T02:32:11.141Z,0
2023-04-10T02:33:17.297Z,0
2023-04-10T02:34:23.425Z,0
2023-04-10T02:35:29.588Z,0
2023-04-10T02:36:35.714Z,0
2023-04-10T02:37:41.861Z,0
2023-04-10T02:38:48.130Z,0
2023-04-10T02:40:59.465Z,0
2023-04-10T02:42:04.594Z,0
2023-04-10T02:43:09.779Z,0
2023-04-10T02:45:22.063Z,0
2023-04-10T02:46:28.201Z,0
2023-04-10T02:47:34.343Z,0
2023-04-10T02:50:52.792Z,0
2023-04-10T02:51:58.918Z,0
2023-04-10T02:53:05.078Z,0
2023-04-10T02:54:11.211Z,0
2023-04-10T02:55:17.361Z,0
2023-04-10T02:56:23.493Z,0
2023-04-10T02:57:28.707Z,0
2023-04-10T02:59:40.936Z,0
2023-04-10T03:01:53.239Z,0
2023-04-10T03:04:05.515Z,0
2023-04-10T03:06:17.802Z,0
2023-04-10T03:07:23.940Z,0
2023-04-10T03:09:36.222Z,0
2023-04-10T03:10:42.380Z,0
2023-04-10T03:12:53.690Z,0
2023-04-10T03:13:59.827Z,0
2023-04-10T03:15:05.957Z,0
2023-04-10T03:16:12.107Z,0
2023-04-10T03:18:24.425Z,0
2023-04-10T03:20:36.675Z,0
2023-04-10T03:21:42.825Z,0
2023-04-10T03:22:48.972Z,0
2023-04-10T03:23:55.110Z,0
2023-04-10T03:26:07.414Z,0
2023-04-10T03:27:12.573Z,0
2023-04-10T03:29:24.841Z,0
2023-04-10T03:30:30.990Z,0
2023-04-10T03:31:37.129Z,0
2023-04-10T03:32:43.285Z,0
2023-04-10T03:36:01.767Z,0
2023-04-10T03:37:07.851Z,0
2023-04-10T03:38:13.996Z,0
2023-04-10T03:40:26.289Z,0
2023-04-10T03:42:37.583Z,0
2023-04-10T03:43:43.727Z,0
2023-04-10T03:44:49.868Z,0
2023-04-10T03:45:56.022Z,0
2023-04-10T03:47:02.161Z,0
2023-04-10T03:48:08.313Z,0
2023-04-10T03:49:14.449Z,0
2023-04-10T03:51:26.726Z,0
2023-04-10T03:52:32.870Z,0
2023-04-10T03:53:38.052Z,0
2023-04-10T03:54:44.178Z,0
2023-04-10T03:55:50.340Z,0
2023-04-10T03:56:56.478Z,0
2023-04-10T04:00:14.926Z,0
2023-04-10T04:01:21.040Z,0
2023-04-10T04:02:27.182Z,0
2023-04-10T04:03:33.345Z,0
2023-04-10T04:05:45.614Z,0
2023-04-10T04:07:57.919Z,0
2023-04-10T04:09:04.171Z,0
2023-04-10T04:10:10.317Z,0
2023-04-10T04:11:16.463Z,0
2023-04-10T04:12:22.599Z,0
2023-04-10T04:13:28.758Z,0
2023-04-10T04:14:34.889Z,0
2023-04-10T04:15:41.033Z,0
2023-04-10T04:16:47.181Z,0
2023-04-10T04:17:53.326Z,0
2023-04-10T04:18:59.464Z,0
2023-04-10T04:20:05.611Z,0
2023-04-10T04:21:11.751Z,4
2023-04-10T04:22:17.894Z,0
2023-04-10T04:24:30.224Z,0
2023-04-10T04:26:41.482Z,4
2023-04-10T04:27:47.635Z,4
2023-04-10T04:31:06.079Z,4
2023-04-10T04:32:12.198Z,12
2023-04-10T04:33:18.366Z,12
2023-04-10T04:34:24.496Z,12
2023-04-10T04:35:30.652Z,16
2023-04-10T04:36:36.765Z,16
2023-04-10T04:37:42.915Z,24
2023-04-10T04:38:49.075Z,28
2023-04-10T04:43:12.646Z,52
2023-04-10T04:45:24.940Z,72
2023-04-10T04:46:31.092Z,84
2023-04-10T04:47:37.234Z,100
2023-04-10T04:49:49.517Z,128
2023-04-10T04:50:55.659Z,140
2023-04-10T04:52:01.819Z,156
2023-04-10T04:53:07.953Z,168
2023-04-10T04:54:13.104Z,184
2023-04-10T04:55:19.254Z,200
2023-04-10T04:57:31.534Z,248
2023-04-10T04:58:37.674Z,268
2023-04-10T04:59:43.822Z,292
2023-04-10T05:00:49.974Z,316
2023-04-10T05:03:02.259Z,360
2023-04-10T05:04:08.394Z,388
2023-04-10T05:05:14.528Z,412
2023-04-10T05:06:20.686Z,440
2023-04-10T05:07:26.840Z,464
2023-04-10T05:08:31.987Z,492
2023-04-10T05:09:38.125Z,516
2023-04-10T05:10:44.263Z,540
2023-04-10T05:11:50.413Z,560
2023-04-10T05:15:08.848Z,628
2023-04-10T05:16:14.987Z,656
2023-04-10T05:17:21.146Z,684
2023-04-10T05:18:27.275Z,712
2023-04-10T05:19:33.439Z,744
2023-04-10T05:20:39.594Z,776
2023-04-10T05:21:45.721Z,812
2023-04-10T05:22:50.882Z,852
2023-04-10T05:23:57.007Z,892
2023-04-10T05:25:03.147Z,932
2023-04-10T05:26:09.290Z,968
2023-04-10T05:27:15.440Z,1008
2023-04-10T05:28:21.581Z,1044
2023-04-10T05:30:33.867Z,1116
2023-04-10T05:31:40.013Z,1152
2023-04-10T05:32:46.166Z,1192
2023-04-10T05:33:52.359Z,1232
2023-04-10T05:34:58.448Z,1272
2023-04-10T05:36:04.589Z,1312
2023-04-10T05:37:09.761Z,1352
2023-04-10T05:38:14.928Z,1392
2023-04-10T05:39:21.073Z,1428
2023-04-10T05:40:26.222Z,1468
2023-04-10T05:41:32.366Z,1504
2023-04-10T05:42:38.569Z,1536
2023-04-10T05:48:09.231Z,1676
2023-04-10T05:49:15.387Z,1692
2023-04-10T05:50:21.515Z,1708
2023-04-10T05:51:27.673Z,1728
2023-04-10T05:52:33.826Z,1752
2023-04-10T05:53:39.957Z,1776
2023-04-10T05:54:45.122Z,1796
2023-04-10T05:55:50.276Z,1828
2023-04-10T05:56:56.444Z,1860
2023-04-10T05:58:02.566Z,1888
2023-04-10T05:59:08.709Z,1924
2023-04-10T06:00:14.979Z,1960
2023-04-10T06:01:21.009Z,2004
2023-04-10T06:03:33.298Z,2100
2023-04-10T06:04:39.422Z,2136
2023-04-10T06:05:45.584Z,2168
2023-04-10T06:06:51.707Z,2192
2023-04-10T06:09:04.039Z,2228
2023-04-10T06:10:09.227Z,2248
2023-04-10T06:12:21.456Z,2260
2023-04-10T06:14:33.731Z,2264
2023-04-10T06:15:39.873Z,2256
2023-04-10T06:16:46.026Z,2248
2023-04-10T06:17:52.168Z,2244
2023-04-10T06:20:04.453Z,2236
2023-04-10T06:22:16.808Z,2236
2023-04-10T06:23:22.887Z,2244
2023-04-10T06:24:28.058Z,2260
2023-04-10T06:25:34.210Z,2252
2023-04-10T06:27:46.476Z,2252
2023-04-10T06:29:58.800Z,2372
2023-04-10T06:31:04.902Z,2392
2023-04-10T06:32:11.043Z,2456
2023-04-10T06:33:17.207Z,2524
2023-04-10T06:36:35.643Z,2668
2023-04-10T06:37:41.807Z,2728
2023-04-10T06:38:46.944Z,2876
2023-04-10T06:39:53.080Z,3076
2023-04-10T06:40:59.265Z,3272
2023-04-10T06:42:05.343Z,3364
2023-04-10T06:43:11.515Z,3476
2023-04-10T06:44:17.654Z,3564
2023-04-10T06:45:23.786Z,3716
2023-04-10T06:46:29.948Z,3908
2023-04-10T06:47:36.074Z,3980
2023-04-10T06:48:42.207Z,4108
2023-04-10T06:53:06.820Z,4812
2023-04-10T06:54:11.963Z,4880
2023-04-10T06:55:18.107Z,5004
2023-04-10T06:56:24.250Z,5040
2023-04-10T06:58:36.528Z,4976
2023-04-10T06:59:42.670Z,4864
2023-04-10T07:00:48.819Z,4784
2023-04-10T07:01:54.966Z,4432
2023-04-10T07:03:01.099Z,4524
2023-04-10T07:04:07.243Z,4388
2023-04-10T07:05:13.378Z,4352
2023-04-10T07:06:19.544Z,4396
2023-04-10T07:09:37.956Z,4388
2023-04-10T07:12:56.433Z,4572
2023-04-10T07:14:01.560Z,4708
2023-04-10T07:15:07.698Z,4728
2023-04-10T07:16:13.833Z,4560
2023-04-10T07:17:19.973Z,4380
2023-04-10T07:18:26.136Z,4420
2023-04-10T07:19:32.267Z,4420
2023-04-10T07:21:44.550Z,4432
2023-04-10T07:22:50.686Z,4444
2023-04-10T07:23:56.858Z,4328
2023-04-10T07:26:09.127Z,4452
2023-04-10T07:27:15.304Z,4356
2023-04-10T07:28:20.425Z,4296
2023-04-10T07:29:26.569Z,4224
2023-04-10T07:30:32.731Z,4260
2023-04-10T07:31:38.867Z,4336
2023-04-10T07:33:51.145Z,4320
2023-04-10T07:34:57.269Z,4312
2023-04-10T07:36:02.457Z,4484
2023-04-10T07:37:08.606Z,4564
2023-04-10T07:38:14.748Z,4484
2023-04-10T07:39:20.886Z,4516
2023-04-10T07:43:45.585Z,4740
2023-04-10T07:44:51.601Z,4872
2023-04-10T07:47:03.905Z,5116
2023-04-10T07:48:10.053Z,5364
2023-04-10T07:49:16.194Z,5576
2023-04-10T07:50:21.342Z,5832
2023-04-10T07:51:27.485Z,6168
2023-04-10T07:52:33.622Z,6380
2023-04-10T07:53:39.782Z,6628
2023-04-10T07:54:45.907Z,6924
2023-04-10T07:55:52.059Z,7136
2023-04-10T07:56:58.191Z,7540
2023-04-10T07:59:10.484Z,8480
2023-04-10T08:00:16.637Z,9160
2023-04-10T08:01:22.761Z,9964
2023-04-10T08:02:28.904Z,10788
2023-04-10T08:03:35.047Z,11476
2023-04-10T08:04:40.217Z,12108
2023-04-10T08:07:58.680Z,13960
2023-04-10T08:09:04.774Z,14592
2023-04-10T08:10:10.934Z,14912
2023-04-10T08:11:17.057Z,15520
2023-04-10T08:12:23.218Z,16832
2023-04-10T08:15:41.682Z,25472
2023-04-10T08:16:47.791Z,26784
2023-04-10T08:17:53.908Z,22240
2023-04-10T08:18:59.137Z,20256
2023-04-10T08:21:11.376Z,23008
2023-04-10T08:24:29.794Z,22720
2023-04-10T08:25:36.056Z,23808
2023-04-10T08:26:42.214Z,18560
2023-04-10T08:27:48.338Z,18624
2023-04-10T08:30:00.741Z,18976
2023-04-10T08:33:19.131Z,17952
2023-04-10T08:34:25.400Z,17088
2023-04-10T08:35:31.519Z,17888
2023-04-10T08:38:49.881Z,26720
2023-04-10T08:39:55.922Z,28960
2023-04-10T08:41:02.065Z,24480
2023-04-10T08:42:08.360Z,26560
2023-04-10T08:44:20.665Z,27264
2023-04-10T08:45:26.835Z,31104
2023-04-10T08:48:45.233Z,21344
2023-04-10T08:49:50.223Z,23232
2023-04-10T08:50:56.368Z,24128
2023-04-10T08:53:08.839Z,26816
2023-04-10T08:54:14.991Z,29824
2023-04-10T08:57:33.389Z,38112
2023-04-10T09:00:51.824Z,39904
2023-04-10T09:01:57.885Z,39680
2023-04-10T09:03:04.090Z,42400
2023-04-10T09:06:21.557Z,42496
2023-04-10T09:07:27.576Z,34496
2023-04-10T09:08:33.855Z,38912
2023-04-10T09:09:39.975Z,46656
2023-04-10T09:10:46.118Z,45760
2023-04-10T09:11:52.271Z,45728
2023-04-10T09:12:58.239Z,45376
2023-04-10T09:14:04.493Z,41120
2023-04-10T09:16:16.681Z,45824
2023-04-10T09:17:22.983Z,47584
2023-04-10T09:18:28.137Z,48768
2023-04-10T09:21:46.569Z,37760
2023-04-10T09:22:52.608Z,39264
2023-04-10T09:23:58.886Z,47584
2023-04-10T09:27:17.284Z,51040
2023-04-10T09:28:23.350Z,51808
2023-04-10T09:29:29.546Z,52160
2023-04-10T09:30:35.680Z,51168
2023-04-10T09:31:41.696Z,49600
2023-04-10T09:32:47.062Z,50880
2023-04-10T09:33:52.986Z,51104
2023-04-10T09:34:59.303Z,51360
2023-04-10T09:38:17.896Z,49344
2023-04-10T09:39:24.004Z,52768
2023-04-10T09:40:30.142Z,52320
2023-04-10T09:41:36.304Z,53056
2023-04-10T09:42:42.448Z,52320
2023-04-10T09:43:48.539Z,51776
2023-04-10T09:47:06.842Z,52352
2023-04-10T09:48:12.191Z,50464
2023-04-10T09:49:18.325Z,51936
2023-04-10T09:50:24.337Z,44768
2023-04-10T09:54:48.965Z,41472
2023-04-10T09:57:01.377Z,46208
2023-04-10T09:59:13.621Z,49696
2023-04-10T10:00:19.665Z,52352
2023-04-10T10:01:26.110Z,55680
2023-04-10T10:02:31.028Z,50688
2023-04-10T10:03:37.227Z,54880
2023-04-10T10:04:43.171Z,57216
2023-04-10T10:05:49.323Z,54304
2023-04-10T10:06:55.622Z,57792
2023-04-10T10:08:01.812Z,57088
2023-04-10T10:09:07.864Z,55744
2023-04-10T10:12:26.327Z,52640
2023-04-10T10:14:38.601Z,46176
2023-04-10T10:16:50.791Z,47776
2023-04-10T10:17:56.023Z,49632
2023-04-10T10:19:02.263Z,49536
2023-04-10T10:20:08.339Z,48864
2023-04-10T10:22:20.649Z,50016
2023-04-10T10:25:38.938Z,50016
2023-04-10T10:27:51.199Z,52000
2023-04-10T10:28:57.486Z,49888
2023-04-10T10:31:09.789Z,47904
2023-04-10T10:32:14.945Z,53568
2023-04-10T10:33:21.118Z,54496
2023-04-10T10:34:27.255Z,53024
2023-04-10T10:35:33.391Z,52704
2023-04-10T10:36:39.536Z,57600
2023-04-10T10:37:45.513Z,59104
2023-04-10T10:39:58.062Z,60256
2023-04-10T10:41:04.173Z,59680
2023-04-10T10:42:10.197Z,57696
2023-04-10T10:46:34.858Z,59552
2023-04-10T10:47:39.809Z,61312
2023-04-10T10:48:45.958Z,64480
2023-04-10T10:49:52.264Z,61600
2023-04-10T10:50:58.423Z,61056
2023-04-10T10:53:10.693Z,60608
2023-04-10T10:54:16.854Z,55200
2023-04-10T10:55:23.036Z,60320
2023-04-10T10:56:29.156Z,54464
2023-04-10T10:57:35.201Z,53824
2023-04-10T10:58:41.390Z,53600
2023-04-10T11:01:59.876Z,52096
2023-04-10T11:03:05.013Z,57760
2023-04-10T11:04:11.192Z,56512
2023-04-10T11:05:17.281Z,56352
2023-04-10T11:08:35.670Z,43200
2023-04-10T11:10:47.999Z,58400
2023-04-10T11:11:54.175Z,49248
2023-04-10T11:13:00.129Z,40288
2023-04-10T11:14:06.445Z,38432
2023-04-10T11:17:24.885Z,44864
2023-04-10T11:18:30.057Z,49088
2023-04-10T11:19:36.213Z,48736
2023-04-10T11:20:42.324Z,51136
2023-04-10T11:21:48.414Z,49632
2023-04-10T11:22:54.438Z,50944
2023-04-10T11:25:06.741Z,50784
2023-04-10T11:26:13.036Z,60224
2023-04-10T11:27:19.187Z,57056
2023-04-10T11:29:31.487Z,56992
2023-04-10T11:30:37.688Z,51360
2023-04-10T11:31:43.755Z,51648
2023-04-10T11:33:55.064Z,55264
2023-04-10T11:36:07.303Z,56608
2023-04-10T11:39:25.762Z,57856
2023-04-10T11:40:31.891Z,58880
2023-04-10T11:41:38.031Z,56096
2023-04-10T11:42:44.032Z,57696
2023-04-10T11:43:50.317Z,56576
2023-04-10T11:44:56.473Z,56512
2023-04-10T11:46:02.452Z,53920
2023-04-10T11:47:07.785Z,51648
2023-04-10T11:48:13.914Z,55104
2023-04-10T11:51:32.378Z,51776
2023-04-10T11:52:38.507Z,47232
2023-04-10T11:53:44.666Z,48576
2023-04-10T11:55:56.761Z,28896
2023-04-10T11:57:03.081Z,12420
2023-04-10T11:58:09.256Z,11820
2023-04-10T11:59:15.184Z,11400
2023-04-10T12:00:21.532Z,11028
2023-04-10T12:01:27.731Z,10840
2023-04-10T12:03:38.955Z,10408
2023-04-10T12:06:57.383Z,9804
2023-04-10T12:08:03.501Z,9672
2023-04-10T12:09:09.522Z,9484
2023-04-10T12:10:15.737Z,9144
2023-04-10T12:11:21.772Z,8972
2023-04-10T12:12:28.064Z,8320
2023-04-10T12:13:34.215Z,8824
2023-04-10T12:15:46.451Z,8288
2023-04-10T12:16:51.692Z,8176
2023-04-10T12:19:03.899Z,8652
2023-04-10T12:20:10.104Z,8772
2023-04-10T12:21:16.245Z,8968
2023-04-10T12:23:28.576Z,8872
2023-04-10T12:25:40.649Z,8336
2023-04-10T12:26:46.926Z,8212
2023-04-10T12:27:53.091Z,7988
2023-04-10T12:28:59.281Z,7800
2023-04-10T12:30:05.339Z,7876
2023-04-10T12:32:16.739Z,7944
2023-04-10T12:33:22.885Z,8076
2023-04-10T12:35:35.101Z,8544
2023-04-10T12:36:41.284Z,8352
2023-04-10T12:37:47.422Z,8676
2023-04-10T12:39:59.710Z,9068
2023-04-10T12:41:05.856Z,9216
2023-04-10T12:42:11.978Z,9476
2023-04-10T12:43:18.151Z,9744
2023-04-10T12:44:24.294Z,9936
2023-04-10T12:45:29.410Z,10004
2023-04-10T12:47:41.726Z,9892
2023-04-10T12:48:47.887Z,9980
2023-04-10T12:51:00.205Z,9976
2023-04-10T12:52:06.166Z,9992
2023-04-10T12:53:12.477Z,9928
2023-04-10T12:54:18.562Z,9936
2023-04-10T12:56:30.704Z,9860
2023-04-10T12:57:36.982Z,9808
2023-04-10T12:58:43.147Z,9716
2023-04-10T13:02:01.723Z,9488
2023-04-10T13:04:13.832Z,9352
2023-04-10T13:05:20.175Z,9320
2023-04-10T13:06:26.121Z,9288
2023-04-10T13:07:32.278Z,9320
2023-04-10T13:08:38.399Z,9328
2023-04-10T13:09:44.772Z,9288
2023-04-10T13:13:03.152Z,9096
2023-04-10T13:15:15.406Z,8912
2023-04-10T13:18:32.900Z,8740
2023-04-10T13:19:38.853Z,8712
2023-04-10T13:20:45.172Z,8736
2023-04-10T13:21:51.326Z,8752
2023-04-10T13:22:57.447Z,8728
2023-04-10T13:24:03.430Z,8692
2023-04-10T13:25:09.733Z,8676
2023-04-10T13:26:15.924Z,8692
2023-04-10T13:27:22.030Z,8648
2023-04-10T13:30:40.446Z,8504
2023-04-10T13:31:45.635Z,8432
2023-04-10T13:32:51.679Z,8336
2023-04-10T13:33:57.940Z,8240
2023-04-10T13:35:04.069Z,8184
2023-04-10T13:36:10.215Z,8108
2023-04-10T13:37:16.340Z,8136
2023-04-10T13:38:22.479Z,8140
2023-04-10T13:39:28.615Z,8088
2023-04-10T13:40:34.843Z,8072
2023-04-10T13:42:47.064Z,7692
2023-04-10T13:43:53.025Z,7876
2023-04-10T13:46:05.382Z,7696
2023-04-10T13:47:11.487Z,7552
2023-04-10T13:48:16.632Z,7444
2023-04-10T13:49:22.780Z,7352
2023-04-10T13:50:28.955Z,7232
2023-04-10T13:51:35.146Z,7176
2023-04-10T13:53:47.429Z,6976
2023-04-10T13:54:53.467Z,6900
2023-04-10T13:55:59.618Z,6848
2023-04-10T13:57:05.805Z,6820
2023-04-10T13:58:11.901Z,6800
2023-04-10T13:59:18.136Z,6764
2023-04-10T14:00:24.310Z,6808
2023-04-10T14:02:36.500Z,6836
2023-04-10T14:03:41.640Z,6828
2023-04-10T14:04:47.781Z,6784
2023-04-10T14:05:53.914Z,6708
2023-04-10T14:07:00.064Z,6640
2023-04-10T14:08:06.238Z,6608
2023-04-10T14:10:18.628Z,6540
2023-04-10T14:11:24.759Z,6524
2023-04-10T14:12:31.084Z,6536
2023-04-10T14:13:37.051Z,6560
2023-04-10T14:14:43.258Z,6588
2023-04-10T14:15:49.396Z,6608
2023-04-10T14:16:55.528Z,6608
2023-04-10T14:19:07.866Z,6612
2023-04-10T14:20:14.023Z,6604
2023-04-10T14:21:20.178Z,6620
2023-04-10T14:22:26.317Z,6600
2023-04-10T14:23:32.444Z,6568
2023-04-10T14:24:38.585Z,6544
2023-04-10T14:26:50.872Z,6480
2023-04-10T14:27:57.073Z,6440
2023-04-10T14:29:03.245Z,6412
2023-04-10T14:31:15.517Z,6356
2023-04-10T14:32:21.705Z,6324
2023-04-10T14:35:40.164Z,6224
2023-04-10T14:37:52.542Z,6120
2023-04-10T14:38:58.605Z,6096
2023-04-10T14:40:04.702Z,6040
2023-04-10T14:41:10.972Z,5992
2023-04-10T14:43:23.130Z,5872
2023-04-10T14:44:29.291Z,5816
2023-04-10T14:46:41.581Z,5720
2023-04-10T14:47:47.711Z,5672
2023-04-10T14:48:53.971Z,5644
2023-04-10T14:50:00.110Z,5616
2023-04-10T14:52:12.405Z,5524
2023-04-10T14:53:18.566Z,5436
2023-04-10T14:54:24.723Z,5328
2023-04-10T14:55:30.833Z,5232
2023-04-10T14:56:36.977Z,5152
2023-04-10T14:57:43.115Z,5124
2023-04-10T14:59:55.395Z,5044
2023-04-10T15:01:00.577Z,5004
2023-04-10T15:02:06.718Z,4980
2023-04-10T15:03:12.887Z,4940
2023-04-10T15:04:18.992Z,4900
2023-04-10T15:05:25.139Z,4864
2023-04-10T15:09:49.714Z,4836
2023-04-10T15:10:55.874Z,4852
2023-04-10T15:12:02.034Z,4852
2023-04-10T15:14:14.327Z,4836
2023-04-10T15:15:19.489Z,4832
2023-04-10T15:16:25.596Z,4808
2023-04-10T15:18:37.866Z,4748
2023-04-10T15:19:44.014Z,4740
2023-04-10T15:20:50.149Z,4740
2023-04-10T15:21:56.303Z,4752
2023-04-10T15:25:14.813Z,4824
2023-04-10T15:26:20.869Z,4828
2023-04-10T15:27:27.044Z,4796
2023-04-10T15:28:33.202Z,4736
2023-04-10T15:30:44.455Z,4536
2023-04-10T15:31:50.595Z,4432
2023-04-10T15:34:03.013Z,4240
2023-04-10T15:35:09.048Z,4196
2023-04-10T15:37:21.328Z,4148
2023-04-10T15:39:33.601Z,4068
2023-04-10T15:41:45.909Z,3976
2023-04-10T15:43:58.198Z,3828
2023-04-10T15:46:09.589Z,3648
2023-04-10T15:47:15.813Z,3564
2023-04-10T15:48:21.875Z,3484
2023-04-10T15:49:28.072Z,3412
2023-04-10T15:50:34.156Z,3340
2023-04-10T15:53:52.761Z,3164
2023-04-10T15:54:58.916Z,3124
2023-04-10T15:56:04.875Z,3080
2023-04-10T16:00:29.451Z,2916
2023-04-10T16:01:34.613Z,2876
2023-04-10T16:02:40.830Z,2836
2023-04-10T16:03:46.924Z,2796
2023-04-10T16:04:53.061Z,2756
2023-04-10T16:05:59.196Z,2720
2023-04-10T16:07:05.320Z,2688
2023-04-10T16:08:11.465Z,2652
2023-04-10T16:09:17.602Z,2628
2023-04-10T16:11:29.900Z,2608
2023-04-10T16:12:36.262Z,2616
2023-04-10T16:15:54.622Z,2580
2023-04-10T16:16:59.770Z,2552
2023-04-10T16:18:05.987Z,2520
2023-04-10T16:19:11.952Z,2484
2023-04-10T16:20:18.056Z,2452
2023-04-10T16:21:24.371Z,2424
2023-04-10T16:22:30.533Z,2392
2023-04-10T16:23:36.536Z,2356
2023-04-10T16:24:42.709Z,2320
2023-04-10T16:29:07.256Z,2168
2023-04-10T16:31:19.623Z,2092
2023-04-10T16:33:32.142Z,1988
2023-04-10T16:34:38.257Z,1936
2023-04-10T16:35:44.179Z,1892
2023-04-10T16:36:50.435Z,1848
2023-04-10T16:39:02.612Z,1776
2023-04-10T16:40:08.923Z,1728
2023-04-10T16:41:15.127Z,1692
2023-04-10T16:42:21.183Z,1644
2023-04-10T16:43:27.277Z,1604
2023-04-10T16:45:39.625Z,1524
2023-04-10T16:48:57.928Z,1428
2023-04-10T16:50:04.066Z,1396
2023-04-10T16:51:09.191Z,1364
2023-04-10T16:53:21.472Z,1276
2023-04-10T16:54:27.645Z,1232
2023-04-10T16:55:33.759Z,1200
2023-04-10T16:56:39.973Z,1176
2023-04-10T16:57:46.051Z,1168
2023-04-10T17:02:10.637Z,1124
2023-04-10T17:04:22.925Z,1092
2023-04-10T17:05:29.277Z,1072
2023-04-10T17:06:35.423Z,1048
2023-04-10T17:07:41.570Z,1020
2023-04-10T17:08:47.603Z,992
2023-04-10T17:11:00.107Z,928
2023-04-10T17:13:12.173Z,872
2023-04-10T17:14:18.324Z,844
2023-04-10T17:15:24.550Z,820
2023-04-10T17:17:36.751Z,784
2023-04-10T17:18:42.946Z,780
2023-04-10T17:20:54.193Z,764
2023-04-10T17:22:00.351Z,748
2023-04-10T17:24:12.665Z,704
2023-04-10T17:25:19.193Z,684
2023-04-10T17:26:24.960Z,660
2023-04-10T17:28:37.185Z,620
2023-04-10T17:29:43.336Z,604
2023-04-10T17:30:49.480Z,588
2023-04-10T17:34:07.913Z,528
2023-04-10T17:35:14.191Z,504
2023-04-10T17:39:38.761Z,384
2023-04-10T17:40:44.887Z,356
2023-04-10T17:41:51.033Z,332
2023-04-10T17:42:57.180Z,312
2023-04-10T17:45:09.464Z,272
2023-04-10T17:46:15.599Z,260
2023-04-10T17:47:21.750Z,244
2023-04-10T17:48:27.916Z,228
2023-04-10T17:49:33.042Z,212
2023-04-10T17:50:39.191Z,196
2023-04-10T17:53:57.629Z,148
2023-04-10T17:55:03.769Z,132
2023-04-10T17:56:09.908Z,116
2023-04-10T17:57:16.098Z,100
2023-04-10T17:58:22.190Z,92
2023-04-10T17:59:28.353Z,80
2023-04-10T18:01:40.625Z,60
2023-04-10T18:02:46.805Z,56
2023-04-10T18:03:52.902Z,48
2023-04-10T18:04:58.091Z,44
2023-04-10T18:06:04.222Z,36
2023-04-10T18:07:10.352Z,32
2023-04-10T18:08:16.496Z,28
2023-04-10T18:10:28.776Z,24
2023-04-10T18:12:41.067Z,20
2023-04-10T18:13:47.213Z,16
2023-04-10T18:14:53.357Z,16
2023-04-10T18:15:59.498Z,16
2023-04-10T18:17:05.637Z,16
2023-04-10T18:18:11.797Z,12
2023-04-10T18:19:16.940Z,8
2023-04-10T18:20:23.087Z,8
2023-04-10T18:21:29.228Z,8
2023-04-10T18:23:41.517Z,4
2023-04-10T18:24:47.657Z,4
2023-04-10T18:26:59.939Z,0
2023-04-10T18:29:12.214Z,4
2023-04-10T18:32:30.661Z,0
2023-04-10T18:33:35.818Z,0
2023-04-10T18:34:41.961Z,0
2023-04-10T18:35:48.113Z,0
2023-04-10T18:36:54.243Z,0
2023-04-10T18:39:06.539Z,0
2023-04-10T18:40:12.671Z,0
2023-04-10T18:43:31.108Z,0
2023-04-10T18:44:36.278Z,0
2023-04-10T18:49:00.865Z,0
2023-04-10T18:50:06.980Z,0
2023-04-10T18:52:19.281Z,0
2023-04-10T18:53:25.419Z,0
2023-04-10T18:54:31.551Z,0
2023-04-10T18:55:37.739Z,0
2023-04-10T18:57:49.981Z,0
2023-04-10T18:58:56.293Z,0
2023-04-10T19:00:02.560Z,0
2023-04-10T19:01:08.564Z,0
2023-04-10T19:02:14.685Z,0
2023-04-10T19:03:20.820Z,0
2023-04-10T19:04:26.975Z,0
2023-04-10T19:05:33.104Z,0
2023-04-10T19:06:39.247Z,0
2023-04-10T19:07:45.399Z,0
2023-04-10T19:08:51.530Z,0
2023-04-10T19:11:03.818Z,0
2023-04-10T19:12:09.961Z,0
2023-04-10T19:13:15.122Z,0
2023-04-10T19:14:21.267Z,0
2023-04-10T19:16:33.556Z,0
2023-04-10T19:18:45.942Z,0
2023-04-10T19:19:51.996Z,0
2023-04-10T19:20:58.181Z,0
2023-04-10T19:22:04.262Z,0
2023-04-10T19:24:16.612Z,0
2023-04-10T19:25:22.802Z,0
2023-04-10T19:26:28.939Z,0
2023-04-10T19:27:34.021Z,0
2023-04-10T19:28:40.207Z,0
2023-04-10T19:29:46.350Z,0
2023-04-10T19:33:04.727Z,0
2023-04-10T19:34:10.899Z,0
2023-04-10T19:35:17.174Z,0
2023-04-10T19:36:23.133Z,0
2023-04-10T19:37:29.277Z,0
2023-04-10T19:38:35.490Z,0
2023-04-10T19:39:41.697Z,0
2023-04-10T19:41:53.982Z,0
2023-04-10T19:42:59.094Z,0
2023-04-10T19:45:11.362Z,0
2023-04-10T19:46:17.510Z,0
2023-04-10T19:47:23.727Z,0
2023-04-10T19:49:35.987Z,0
2023-04-10T19:50:42.020Z,0
2023-04-10T19:51:48.155Z,0
2023-04-10T19:52:54.301Z,0
2023-04-10T19:54:00.450Z,0
2023-04-10T19:55:06.598Z,0
2023-04-10T19:56:12.721Z,0
2023-04-10T19:57:17.882Z,0
2023-04-10T19:58:24.029Z,0
2023-04-10T19:59:30.162Z,0
2023-04-10T20:00:36.442Z,0
2023-04-10T20:01:42.450Z,0
2023-04-10T20:02:48.614Z,0
2023-04-10T20:03:54.783Z,0
2023-04-10T20:06:07.018Z,0
2023-04-10T20:08:19.307Z,0
2023-04-10T20:09:25.488Z,0